Time;durP1;ratioP1;P1;durP2;ratioP2;P2;SDS_P1;SDS_P2;PMS_P1;PMS_P2;Temp;Humidity;BMP_temperature;BMP_pressure;BME280_temperature;BME280_humidity;BME280_pressure;Samples;Min_cycle;Max_cycle;Signal;HPM_P1;HPM_P2
2022/05/02 00:02:06;;;;;;;;;;;5.90;99.90;;;;;;5116850;28;19949;-60
2022/05/02 00:04:31;;;;;;;;;;;5.80;99.90;;;;;;5116809;28;19928;-60
2022/05/02 00:06:57;;;;;;;;;;;5.80;99.90;;;;;;5115782;28;19977;-60
2022/05/02 00:09:23;;;;;;;;;;;5.80;99.90;;;;;;5097742;28;19935;-60
2022/05/02 00:11:48;;;;;;;;;;;5.80;99.90;;;;;;5116167;28;19924;-60
2022/05/02 00:14:14;;;;;;;;;;;5.80;99.90;;;;;;5116088;28;19928;-60
2022/05/02 00:16:40;;;;;;;;;;;5.70;99.90;;;;;;5116292;28;20297;-60
2022/05/02 00:19:05;;;;;;;;;;;5.80;99.90;;;;;;5115698;28;19923;-60
2022/05/02 00:21:31;;;;;;;;;;;5.80;99.90;;;;;;5116623;28;20339;-60
2022/05/02 00:23:56;;;;;;;;;;;5.80;99.90;;;;;;5116053;28;19923;-60
2022/05/02 00:26:22;;;;;;;;;;;5.80;99.90;;;;;;5097319;28;19924;-60
2022/05/02 00:28:47;;;;;;;;;;;5.80;99.90;;;;;;5115218;28;19924;-60
2022/05/02 00:31:13;;;;;;;;;;;5.80;99.90;;;;;;5097533;28;19923;-60
2022/05/02 00:33:39;;;;;;;;;;;5.80;99.90;;;;;;5115474;28;19924;-60
2022/05/02 00:36:04;;;;;;;;;;;5.90;99.90;;;;;;5116436;28;19931;-60
2022/05/02 00:38:30;;;;;;;;;;;5.90;99.90;;;;;;5097588;28;19928;-60
2022/05/02 00:40:57;;;;;;;;;;;5.90;99.90;;;;;;5115312;28;19981;-60
2022/05/02 00:43:23;;;;;;;;;;;5.90;99.90;;;;;;5116262;28;20293;-60
2022/05/02 00:45:49;;;;;;;;;;;5.90;99.90;;;;;;5115725;28;19924;-60
2022/05/02 00:48:15;;;;;;;;;;;5.80;99.90;;;;;;5115084;28;19931;-60
2022/05/02 00:50:42;;;;;;;;;;;5.80;99.90;;;;;;5115476;28;19936;-60
2022/05/02 00:53:09;;;;;;;;;;;5.80;99.90;;;;;;5115833;28;19923;-60
2022/05/02 00:55:35;;;;;;;;;;;5.80;99.90;;;;;;5115180;28;19924;-60
2022/05/02 00:58:01;;;;;;;;;;;5.80;99.90;;;;;;5097158;28;19968;-60
2022/05/02 01:00:28;;;;;;;;;;;5.70;99.90;;;;;;5115465;28;20378;-60
2022/05/02 01:02:54;;;;;;;;;;;5.70;99.90;;;;;;5115118;28;19931;-60
2022/05/02 01:05:19;;;;;;;;;;;5.60;99.90;;;;;;5097550;28;19942;-60
2022/05/02 01:07:46;;;;;;;;;;;5.50;99.90;;;;;;5115226;28;19923;-60
2022/05/02 01:10:16;;;;;;;;;;;5.80;99.90;;;;;;5094249;28;19974;-60
2022/05/02 01:12:44;;;;;;;;;;;5.50;99.90;;;;;;5095005;28;20293;-60
2022/05/02 01:15:10;;;;;;;;;;;5.40;99.90;;;;;;5093055;28;19935;-60
2022/05/02 01:17:37;;;;;;;;;;;5.40;99.90;;;;;;5113543;28;19924;-60
2022/05/02 01:20:10;;;;;;;;;;;5.40;99.90;;;;;;5115478;28;20278;-60
2022/05/02 01:22:35;;;;;;;;;;;5.40;99.90;;;;;;5114385;28;19937;-60
2022/05/02 01:25:01;;;;;;;;;;;5.40;99.90;;;;;;5115178;28;19920;-60
2022/05/02 01:27:26;;;;;;;;;;;5.40;99.90;;;;;;5115442;28;20026;-59
2022/05/02 01:29:52;;;;;;;;;;;5.30;99.90;;;;;;5095470;28;19924;-60
2022/05/02 01:32:18;;;;;;;;;;;5.30;99.90;;;;;;5115063;28;19988;-60
2022/05/02 01:34:44;;;;;;;;;;;5.10;99.90;;;;;;5096759;28;20014;-60
2022/05/02 01:37:12;;;;;;;;;;;5.00;99.90;;;;;;5114329;28;19934;-60
2022/05/02 01:39:38;;;;;;;;;;;5.00;99.90;;;;;;5114838;28;20404;-60
2022/05/02 01:42:05;;;;;;;;;;;5.00;99.90;;;;;;5114593;28;19967;-60
2022/05/02 01:44:30;;;;;;;;;;;4.90;99.90;;;;;;5114062;28;19959;-60
2022/05/02 01:46:56;;;;;;;;;;;5.00;99.90;;;;;;5115106;28;20009;-60
2022/05/02 01:49:22;;;;;;;;;;;4.90;99.90;;;;;;5114541;28;19923;-60
2022/05/02 01:51:48;;;;;;;;;;;4.90;99.90;;;;;;5113473;28;19962;-60
2022/05/02 01:54:13;;;;;;;;;;;5.00;99.90;;;;;;5096304;28;19931;-60
2022/05/02 01:56:39;;;;;;;;;;;4.90;99.90;;;;;;5114742;28;19924;-60
2022/05/02 01:59:05;;;;;;;;;;;5.00;99.90;;;;;;5113364;28;19931;-60
2022/05/02 02:01:31;;;;;;;;;;;5.10;99.90;;;;;;5095561;28;19976;-60
2022/05/02 02:03:58;;;;;;;;;;;5.10;99.90;;;;;;5114377;28;19931;-59
2022/05/02 02:06:24;;;;;;;;;;;5.10;99.90;;;;;;5094804;28;19924;-60
2022/05/02 02:08:50;;;;;;;;;;;5.10;99.90;;;;;;5113173;28;19931;-59
2022/05/02 02:11:16;;;;;;;;;;;5.10;99.90;;;;;;5114175;28;20370;-60
2022/05/02 02:13:41;;;;;;;;;;;5.20;99.90;;;;;;5113140;28;19924;-60
2022/05/02 02:16:09;;;;;;;;;;;5.20;99.90;;;;;;5114248;28;19941;-60
2022/05/02 02:18:35;;;;;;;;;;;5.20;99.90;;;;;;5094870;28;19973;-60
2022/05/02 02:21:01;;;;;;;;;;;5.10;99.90;;;;;;5113520;28;19927;-59
2022/05/02 02:23:27;;;;;;;;;;;5.00;99.90;;;;;;5096067;28;20377;-60
2022/05/02 02:25:53;;;;;;;;;;;5.00;99.90;;;;;;5095171;28;19924;-60
2022/05/02 02:28:19;;;;;;;;;;;5.00;99.90;;;;;;5095310;28;19920;-59
2022/05/02 02:30:45;;;;;;;;;;;5.00;99.90;;;;;;5113898;28;19932;-60
2022/05/02 02:33:10;;;;;;;;;;;4.90;99.90;;;;;;5113580;28;19928;-60
2022/05/02 02:35:36;;;;;;;;;;;4.90;99.90;;;;;;5113645;28;19924;-59
2022/05/02 02:38:02;;;;;;;;;;;4.80;99.90;;;;;;5096003;28;20430;-60
2022/05/02 02:40:28;;;;;;;;;;;4.90;99.90;;;;;;5113357;28;20286;-60
2022/05/02 02:42:54;;;;;;;;;;;4.80;99.90;;;;;;5095191;28;19969;-59
2022/05/02 02:45:20;;;;;;;;;;;4.70;99.90;;;;;;5113720;28;20032;-60
2022/05/02 02:47:45;;;;;;;;;;;4.70;99.90;;;;;;5094798;28;20443;-60
2022/05/02 02:50:11;;;;;;;;;;;4.70;99.90;;;;;;5113251;28;19923;-60
2022/05/02 02:52:37;;;;;;;;;;;4.70;99.90;;;;;;5113818;28;19924;-60
2022/05/02 02:55:03;;;;;;;;;;;4.70;99.90;;;;;;5112936;28;20389;-59
2022/05/02 02:57:29;;;;;;;;;;;4.80;99.90;;;;;;5095499;28;19927;-60
2022/05/02 02:59:54;;;;;;;;;;;4.80;99.90;;;;;;5114081;28;20381;-60
2022/05/02 03:02:20;;;;;;;;;;;4.80;99.90;;;;;;5112690;28;19981;-60
2022/05/02 03:07:30;;;;;;;;;;;4.60;99.90;;;;;;5095336;28;19934;-59
2022/05/02 03:09:56;;;;;;;;;;;4.50;99.90;;;;;;5112410;28;19924;-60
2022/05/02 03:12:22;;;;;;;;;;;4.40;99.90;;;;;;5113009;28;19955;-60
2022/05/02 03:14:48;;;;;;;;;;;4.40;99.90;;;;;;5113038;28;19966;-59
2022/05/02 03:17:13;;;;;;;;;;;4.30;99.90;;;;;;5113491;28;19985;-59
2022/05/02 03:19:39;;;;;;;;;;;4.30;99.90;;;;;;5114082;28;19932;-60
2022/05/02 03:22:05;;;;;;;;;;;4.30;99.90;;;;;;5117119;28;19931;-59
2022/05/02 03:24:30;;;;;;;;;;;4.30;99.90;;;;;;5099378;28;19931;-60
2022/05/02 03:26:56;;;;;;;;;;;4.30;99.90;;;;;;5117802;28;19924;-60
2022/05/02 03:29:21;;;;;;;;;;;4.20;99.90;;;;;;5097529;28;19923;-60
2022/05/02 03:31:47;;;;;;;;;;;4.20;99.90;;;;;;5117816;28;19931;-60
2022/05/02 03:34:13;;;;;;;;;;;4.20;99.90;;;;;;5117685;28;20384;-60
2022/05/02 03:36:38;;;;;;;;;;;4.20;99.90;;;;;;5115085;28;20012;-60
2022/05/02 03:39:04;;;;;;;;;;;4.20;99.90;;;;;;5116980;28;20004;-60
2022/05/02 03:41:30;;;;;;;;;;;4.20;99.90;;;;;;5117506;28;19927;-60
2022/05/02 03:43:56;;;;;;;;;;;4.20;99.90;;;;;;5116466;28;20442;-60
2022/05/02 03:46:21;;;;;;;;;;;4.20;99.90;;;;;;5117018;28;19924;-60
2022/05/02 03:48:47;;;;;;;;;;;4.10;99.90;;;;;;5116916;28;20385;-60
2022/05/02 03:51:13;;;;;;;;;;;4.10;99.90;;;;;;5115889;28;19930;-60
2022/05/02 03:53:38;;;;;;;;;;;4.10;99.90;;;;;;5117349;28;19959;-59
2022/05/02 03:56:04;;;;;;;;;;;4.10;99.90;;;;;;5116500;28;19949;-60
2022/05/02 03:58:30;;;;;;;;;;;4.00;99.90;;;;;;5116087;28;19931;-59
2022/05/02 04:00:56;;;;;;;;;;;4.00;99.90;;;;;;5099009;28;20005;-59
2022/05/02 04:03:22;;;;;;;;;;;4.00;99.90;;;;;;5116933;28;20369;-59
2022/05/02 04:05:47;;;;;;;;;;;3.90;99.90;;;;;;5115638;28;19920;-59
2022/05/02 04:08:13;;;;;;;;;;;3.90;99.90;;;;;;5116935;28;20293;-59
2022/05/02 04:10:39;;;;;;;;;;;3.90;99.90;;;;;;5098024;28;19932;-59
2022/05/02 04:13:04;;;;;;;;;;;3.90;99.90;;;;;;5115205;28;20010;-59
2022/05/02 04:15:30;;;;;;;;;;;3.90;99.90;;;;;;5116771;28;19936;-59
2022/05/02 04:17:56;;;;;;;;;;;3.90;99.90;;;;;;5116405;28;19919;-59
2022/05/02 04:20:22;;;;;;;;;;;3.90;99.90;;;;;;5116194;28;20036;-59
2022/05/02 04:22:47;;;;;;;;;;;3.80;99.90;;;;;;5116154;28;19924;-59
2022/05/02 04:25:13;;;;;;;;;;;3.80;99.90;;;;;;5115506;28;20361;-59
2022/05/02 04:27:38;;;;;;;;;;;3.80;99.90;;;;;;5116285;28;20429;-59
2022/05/02 04:30:04;;;;;;;;;;;3.80;99.90;;;;;;5115454;28;19923;-59
2022/05/02 04:32:30;;;;;;;;;;;3.80;99.90;;;;;;5115434;28;19934;-59
2022/05/02 04:34:58;;;;;;;;;;;3.80;99.90;;;;;;5097656;28;19924;-59
2022/05/02 04:37:24;;;;;;;;;;;3.80;99.90;;;;;;5116196;28;19930;-59
2022/05/02 04:39:50;;;;;;;;;;;3.80;99.90;;;;;;5096774;28;20011;-59
2022/05/02 04:42:16;;;;;;;;;;;3.90;99.90;;;;;;5097706;28;20346;-59
2022/05/02 04:44:41;;;;;;;;;;;3.90;99.90;;;;;;5116322;28;19974;-59
2022/05/02 04:47:07;;;;;;;;;;;4.00;99.90;;;;;;5097311;28;19930;-59
2022/05/02 04:49:33;;;;;;;;;;;4.00;99.90;;;;;;5114925;28;19971;-59
2022/05/02 04:51:58;;;;;;;;;;;4.00;99.90;;;;;;5115865;28;19931;-59
2022/05/02 04:54:24;;;;;;;;;;;4.00;99.90;;;;;;5115089;28;19928;-59
2022/05/02 04:56:50;;;;;;;;;;;4.00;99.90;;;;;;5115296;28;20014;-60
2022/05/02 04:59:15;;;;;;;;;;;4.10;99.90;;;;;;5097397;28;19927;-59
2022/05/02 05:01:41;;;;;;;;;;;4.10;99.90;;;;;;5114912;28;20266;-59
2022/05/02 05:04:07;;;;;;;;;;;4.20;99.90;;;;;;5097182;28;19924;-59
2022/05/02 05:06:33;;;;;;;;;;;4.30;99.90;;;;;;5115308;28;20043;-59
2022/05/02 05:08:58;;;;;;;;;;;4.40;99.90;;;;;;5096258;28;19927;-59
2022/05/02 05:11:24;;;;;;;;;;;4.40;99.90;;;;;;5115233;28;19924;-59
2022/05/02 05:16:20;;;;;;;;;;;4.50;99.90;;;;;;5115407;28;19935;-59
2022/05/02 05:16:47;;;;;;;;;;;4.60;99.90;;;;;;5114452;28;19930;-60
2022/05/02 05:19:20;;;;;;;;;;;4.80;99.90;;;;;;5114917;28;20010;-59
2022/05/02 05:21:53;;;;;;;;;;;4.90;99.90;;;;;;5094311;28;20279;-60
2022/05/02 05:24:23;;;;;;;;;;;5.10;99.90;;;;;;5104443;28;19963;-59
2022/05/02 05:26:49;;;;;;;;;;;5.20;99.90;;;;;;5114934;28;20366;-59
2022/05/02 05:29:25;;;;;;;;;;;5.40;99.90;;;;;;5114410;28;19931;-60
2022/05/02 05:31:57;;;;;;;;;;;5.50;99.90;;;;;;5115031;28;19928;-59
2022/05/02 05:34:29;;;;;;;;;;;5.70;99.90;;;;;;5114715;28;19923;-59
2022/05/02 05:37:21;;;;;;;;;;;5.90;99.90;;;;;;5114153;28;19977;-59
2022/05/02 05:39:53;;;;;;;;;;;6.00;99.90;;;;;;5115176;28;19924;-59
2022/05/02 05:42:20;;;;;;;;;;;6.30;99.90;;;;;;5113036;28;20362;-59
2022/05/02 05:44:57;;;;;;;;;;;6.40;99.90;;;;;;5114693;28;19923;-60
2022/05/02 05:47:32;;;;;;;;;;;6.60;99.90;;;;;;5111509;28;20362;-60
2022/05/02 05:50:10;;;;;;;;;;;6.70;99.90;;;;;;5109424;28;19930;-60
2022/05/02 05:52:38;;;;;;;;;;;6.90;99.90;;;;;;5096504;28;19931;-60
2022/05/02 05:55:05;;;;;;;;;;;7.10;99.90;;;;;;5096187;28;19927;-60
2022/05/02 05:57:48;;;;;;;;;;;7.20;99.90;;;;;;5114066;28;19925;-60
2022/05/02 06:00:15;;;;;;;;;;;7.30;99.90;;;;;;5114446;28;20024;-60
2022/05/02 06:02:47;;;;;;;;;;;7.50;99.90;;;;;;5114153;28;19924;-59
2022/05/02 06:05:13;;;;;;;;;;;7.70;99.90;;;;;;5113597;28;19934;-60
2022/05/02 06:07:39;;;;;;;;;;;7.90;99.90;;;;;;5114430;28;19923;-60
2022/05/02 06:10:05;;;;;;;;;;;8.10;99.90;;;;;;5113840;28;19931;-60
2022/05/02 06:12:31;;;;;;;;;;;8.20;99.90;;;;;;5113514;28;19930;-60
2022/05/02 06:20:33;;;;;;;;;;;8.60;99.90;;;;;;5114191;28;19934;-60
2022/05/02 06:22:59;;;;;;;;;;;8.80;99.90;;;;;;5114467;28;19931;-60
2022/05/02 06:25:28;;;;;;;;;;;8.90;99.90;;;;;;5113034;28;19931;-60
2022/05/02 06:27:55;;;;;;;;;;;9.00;99.90;;;;;;5114325;28;19923;-60
2022/05/02 06:30:22;;;;;;;;;;;9.10;99.90;;;;;;5114035;28;19924;-60
2022/05/02 06:32:49;;;;;;;;;;;9.30;99.90;;;;;;5112359;28;20392;-60
2022/05/02 06:35:15;;;;;;;;;;;9.40;99.90;;;;;;5113357;28;19924;-60
2022/05/02 06:37:41;;;;;;;;;;;9.50;99.90;;;;;;5114005;28;20377;-60
2022/05/02 06:40:16;;;;;;;;;;;9.70;99.90;;;;;;5112976;28;19969;-60
2022/05/02 06:42:52;;;;;;;;;;;10.00;99.90;;;;;;5113795;28;19984;-60
2022/05/02 06:45:18;;;;;;;;;;;10.00;99.90;;;;;;5095915;28;19974;-60
2022/05/02 06:47:56;;;;;;;;;;;10.10;99.90;;;;;;5112625;28;20397;-60
2022/05/02 06:50:24;;;;;;;;;;;10.40;99.90;;;;;;5113491;28;19931;-60
2022/05/02 06:52:59;;;;;;;;;;;10.40;99.90;;;;;;5112609;28;20059;-60
2022/05/02 06:55:33;;;;;;;;;;;10.50;99.90;;;;;;5113664;28;20036;-60
2022/05/02 06:58:13;;;;;;;;;;;11.20;99.90;;;;;;5113815;28;19948;-60
2022/05/02 07:00:41;;;;;;;;;;;10.80;99.90;;;;;;5109535;28;20331;-60
2022/05/02 07:03:23;;;;;;;;;;;11.00;99.90;;;;;;5113415;28;20010;-60
2022/05/02 07:06:01;;;;;;;;;;;11.10;99.90;;;;;;5105340;28;20290;-60
2022/05/02 07:08:28;;;;;;;;;;;11.40;99.90;;;;;;5104855;28;20354;-60
2022/05/02 07:10:57;;;;;;;;;;;11.40;99.90;;;;;;5110796;28;20370;-60
2022/05/02 07:13:32;;;;;;;;;;;11.50;99.90;;;;;;5092977;28;20409;-60
2022/05/02 07:15:58;;;;;;;;;;;11.60;99.90;;;;;;5092057;28;19969;-60
2022/05/02 07:18:36;;;;;;;;;;;11.70;99.90;;;;;;5105529;28;20297;-60
2022/05/02 07:21:15;;;;;;;;;;;11.80;99.90;;;;;;5110920;28;19924;-60
2022/05/02 07:23:50;;;;;;;;;;;12.00;99.90;;;;;;5110928;28;19939;-60
2022/05/02 07:26:20;;;;;;;;;;;12.00;99.90;;;;;;5112578;28;19931;-60
2022/05/02 07:28:47;;;;;;;;;;;12.10;99.90;;;;;;5111904;28;19924;-60
2022/05/02 07:31:16;;;;;;;;;;;12.20;99.90;;;;;;5113307;28;19923;-60
2022/05/02 07:33:44;;;;;;;;;;;12.30;99.90;;;;;;5106585;28;20012;-60
2022/05/02 07:36:13;;;;;;;;;;;12.30;99.90;;;;;;5101653;28;20393;-60
2022/05/02 07:38:40;;;;;;;;;;;12.40;99.90;;;;;;5113175;28;19924;-60
2022/05/02 07:41:23;;;;;;;;;;;12.50;99.90;;;;;;5093668;28;19931;-60
2022/05/02 07:43:50;;;;;;;;;;;12.60;99.90;;;;;;5112388;28;20069;-60
2022/05/02 07:46:18;;;;;;;;;;;12.70;99.90;;;;;;5112138;28;19931;-60
2022/05/02 07:48:44;;;;;;;;;;;;;;;;;;5112731;28;19956;-60
2022/05/02 07:51:10;;;;;;;;;;;12.90;99.90;;;;;;5092350;28;19939;-60
2022/05/02 07:53:37;;;;;;;;;;;13.00;99.90;;;;;;5112267;28;19928;-60
2022/05/02 07:56:04;;;;;;;;;;;13.10;99.90;;;;;;5112136;28;19932;-60
2022/05/02 07:58:31;;;;;;;;;;;13.20;99.90;;;;;;5112448;28;19928;-61
2022/05/02 08:00:56;;;;;;;;;;;13.30;99.90;;;;;;5112245;28;19930;-60
2022/05/02 08:03:23;;;;;;;;;;;13.50;99.90;;;;;;5111609;28;20006;-61
2022/05/02 08:05:51;;;;;;;;;;;13.60;99.90;;;;;;5113636;28;19923;-61
2022/05/02 08:08:21;;;;;;;;;;;13.70;99.90;;;;;;5113466;28;20390;-61
2022/05/02 08:10:56;;;;;;;;;;;13.90;99.90;;;;;;5096859;28;19977;-61
2022/05/02 08:13:22;;;;;;;;;;;;;;;;;;5116347;28;19931;-61
2022/05/02 08:15:48;;;;;;;;;;;14.20;99.90;;;;;;5097768;28;19924;-61
2022/05/02 08:18:32;;;;;;;;;;;14.40;99.90;;;;;;5115367;28;20403;-61
2022/05/02 08:21:03;;;;;;;;;;;14.50;99.90;;;;;;5114549;28;20335;-61
2022/05/02 08:29:21;;;;;;;;;;;15.00;99.90;;;;;;5114600;28;20412;-61
2022/05/02 08:31:51;;;;;;;;;;;15.10;99.90;;;;;;5115468;28;19924;-61
2022/05/02 08:34:17;;;;;;;;;;;15.10;99.90;;;;;;5116295;28;19931;-60
2022/05/02 08:36:53;;;;;;;;;;;15.20;99.90;;;;;;5116474;28;19930;-60
2022/05/02 08:39:23;;;;;;;;;;;15.30;99.90;;;;;;5108551;28;19931;-60
2022/05/02 08:41:50;;;;;;;;;;;15.50;99.90;;;;;;5112727;28;20335;-60
2022/05/02 08:44:22;;;;;;;;;;;15.50;99.90;;;;;;5116150;28;20043;-60
2022/05/02 08:47:06;;;;;;;;;;;15.60;99.90;;;;;;5099908;28;20302;-60
2022/05/02 08:49:50;;;;;;;;;;;15.70;99.90;;;;;;5115625;28;19984;-60
2022/05/02 08:52:32;;;;;;;;;;;15.60;99.90;;;;;;5115264;28;20416;-60
2022/05/02 08:55:06;;;;;;;;;;;15.70;99.90;;;;;;5115276;28;20553;-60
2022/05/02 08:57:37;;;;;;;;;;;15.50;99.90;;;;;;5097049;28;19924;-60
2022/05/02 09:00:07;;;;;;;;;;;15.40;99.90;;;;;;5114939;28;19924;-59
2022/05/02 09:02:55;;;;;;;;;;;15.60;99.90;;;;;;5097744;28;19928;-60
2022/05/02 09:05:23;;;;;;;;;;;15.90;99.80;;;;;;5113831;28;19928;-60
2022/05/02 09:07:59;;;;;;;;;;;16.10;99.00;;;;;;5114433;28;19931;-60
2022/05/02 09:10:32;;;;;;;;;;;16.10;99.90;;;;;;5115049;28;19968;-61
2022/05/02 09:13:07;;;;;;;;;;;16.30;99.90;;;;;;5112905;28;19931;-61
2022/05/02 09:15:45;;;;;;;;;;;16.40;99.80;;;;;;5114205;28;20298;-60
2022/05/02 09:18:21;;;;;;;;;;;16.40;97.20;;;;;;5114064;28;20393;-60
2022/05/02 09:20:49;;;;;;;;;;;16.40;96.70;;;;;;5114613;28;19930;-60
2022/05/02 09:23:34;;;;;;;;;;;16.50;99.40;;;;;;5096125;28;19920;-60
2022/05/02 09:26:03;;;;;;;;;;;16.60;97.00;;;;;;5115480;28;19928;-61
2022/05/02 09:28:32;;;;;;;;;;;16.60;95.50;;;;;;5114393;28;20382;-60
2022/05/02 09:31:14;;;;;;;;;;;16.20;92.70;;;;;;5113967;28;19974;-60
2022/05/02 09:33:54;;;;;;;;;;;16.10;96.00;;;;;;5115350;28;19973;-60
2022/05/02 09:36:27;;;;;;;;;;;16.10;95.80;;;;;;5114589;28;19928;-60
2022/05/02 09:39:09;;;;;;;;;;;16.40;96.50;;;;;;5114731;28;20439;-60
2022/05/02 09:41:48;;;;;;;;;;;16.50;91.80;;;;;;5093028;28;20336;-60
2022/05/02 09:50:14;;;;;;;;;;;16.50;86.30;;;;;;5111368;28;19984;-60
2022/05/02 09:52:58;;;;;;;;;;;16.40;82.20;;;;;;5114648;28;19928;-61
2022/05/02 09:58:32;;;;;;;;;;;16.50;79.50;;;;;;5095793;28;20010;-60
2022/05/02 10:01:06;;;;;;;;;;;16.60;88.80;;;;;;5114263;28;20285;-60
2022/05/02 10:03:33;;;;;;;;;;;16.60;82.90;;;;;;5113978;28;19924;-60
2022/05/02 10:06:04;;;;;;;;;;;16.50;84.90;;;;;;5096074;28;19970;-60
2022/05/02 10:08:49;;;;;;;;;;;16.60;89.70;;;;;;5113577;28;19973;-60
2022/05/02 10:11:33;;;;;;;;;;;16.80;92.10;;;;;;5110734;28;19924;-60
2022/05/02 10:13:59;;;;;;;;;;;17.20;92.70;;;;;;5093879;28;19963;-60
2022/05/02 10:16:42;;;;;;;;;;;17.60;90.00;;;;;;5104180;28;20349;-60
2022/05/02 10:19:19;;;;;;;;;;;17.90;86.90;;;;;;5114071;28;20443;-61
2022/05/02 10:22:02;;;;;;;;;;;18.40;80.80;;;;;;5093818;28;19931;-61
2022/05/02 10:24:46;;;;;;;;;;;18.90;79.70;;;;;;5097212;28;19923;-61
2022/05/02 10:27:19;;;;;;;;;;;19.40;78.10;;;;;;5114373;28;20002;-61
2022/05/02 10:30:00;;;;;;;;;;;20.30;74.20;;;;;;5113022;28;19924;-61
2022/05/02 10:32:40;;;;;;;;;;;21.00;70.60;;;;;;5113571;28;19931;-61
2022/05/02 10:35:09;;;;;;;;;;;21.50;65.10;;;;;;5111934;28;19927;-61
2022/05/02 10:37:36;;;;;;;;;;;21.50;59.60;;;;;;5113546;28;19976;-61
2022/05/02 10:40:04;;;;;;;;;;;21.50;54.80;;;;;;5111113;28;19931;-61
2022/05/02 10:42:31;;;;;;;;;;;21.50;56.70;;;;;;5113152;28;20362;-61
2022/05/02 10:45:03;;;;;;;;;;;21.90;57.40;;;;;;5111912;28;19924;-61
2022/05/02 10:47:36;;;;;;;;;;;22.10;55.00;;;;;;5109420;28;20011;-61
2022/05/02 10:50:04;;;;;;;;;;;22.20;56.80;;;;;;5110902;28;20385;-61
2022/05/02 10:52:41;;;;;;;;;;;22.70;57.50;;;;;;5111841;28;20012;-61
2022/05/02 10:55:12;;;;;;;;;;;22.50;55.70;;;;;;5110826;28;19923;-62
2022/05/02 10:57:38;;;;;;;;;;;21.20;56.10;;;;;;5113808;28;19924;-61
2022/05/02 11:00:06;;;;;;;;;;;19.90;56.40;;;;;;5112402;28;19923;-61
2022/05/02 11:02:50;;;;;;;;;;;19.10;60.20;;;;;;5113586;28;19931;-61
2022/05/02 11:05:19;;;;;;;;;;;18.90;59.40;;;;;;5094518;28;19924;-61
2022/05/02 11:07:49;;;;;;;;;;;18.40;59.90;;;;;;5093618;28;20292;-61
2022/05/02 11:10:18;;;;;;;;;;;18.10;64.40;;;;;;5112638;28;19924;-61
2022/05/02 11:12:45;;;;;;;;;;;17.90;63.40;;;;;;5113055;28;19924;-61
2022/05/02 11:15:28;;;;;;;;;;;17.80;65.90;;;;;;5112043;28;19924;-61
2022/05/02 11:18:04;;;;;;;;;;;18.00;66.80;;;;;;5111201;28;19928;-61
2022/05/02 11:20:43;;;;;;;;;;;19.30;66.00;;;;;;5094201;28;19923;-61
2022/05/02 11:23:10;;;;;;;;;;;20.80;62.50;;;;;;5112924;28;19961;-62
2022/05/02 11:25:39;;;;;;;;;;;22.20;59.30;;;;;;5095189;28;19977;-62
2022/05/02 11:28:21;;;;;;;;;;;23.40;57.10;;;;;;5112225;28;19960;-61
2022/05/02 11:30:50;;;;;;;;;;;24.10;55.80;;;;;;5113354;28;19924;-62
2022/05/02 11:33:18;;;;;;;;;;;24.10;53.70;;;;;;5113438;28;19956;-62
2022/05/02 11:35:47;;;;;;;;;;;23.60;52.50;;;;;;5093682;28;19924;-62
2022/05/02 11:38:12;;;;;;;;;;;22.30;53.00;;;;;;5113451;28;19924;-62
2022/05/02 11:40:57;;;;;;;;;;;20.70;55.80;;;;;;5114226;28;20293;-62
2022/05/02 11:43:23;;;;;;;;;;;19.60;59.80;;;;;;5116365;28;19924;-62
2022/05/02 11:45:57;;;;;;;;;;;19.30;61.60;;;;;;5117058;28;19928;-62
2022/05/02 11:48:32;;;;;;;;;;;19.90;61.30;;;;;;5116108;28;19924;-62
2022/05/02 11:51:03;;;;;;;;;;;20.70;58.40;;;;;;5116759;28;20369;-62
2022/05/02 11:53:32;;;;;;;;;;;21.40;60.30;;;;;;5116999;28;19924;-62
2022/05/02 11:56:01;;;;;;;;;;;21.80;59.40;;;;;;5098353;28;20302;-62
2022/05/02 11:58:34;;;;;;;;;;;21.40;58.80;;;;;;5116719;28;19924;-62
2022/05/02 12:01:02;;;;;;;;;;;21.00;61.00;;;;;;5115193;28;19967;-62
2022/05/02 12:03:33;;;;;;;;;;;20.60;59.90;;;;;;5115887;28;19973;-62
2022/05/02 12:06:02;;;;;;;;;;;20.90;61.90;;;;;;5116774;28;19924;-62
2022/05/02 12:08:32;;;;;;;;;;;22.30;59.70;;;;;;5116881;28;19928;-62
2022/05/02 12:11:05;;;;;;;;;;;23.90;56.30;;;;;;5115524;28;19928;-62
2022/05/02 12:13:36;;;;;;;;;;;25.30;53.60;;;;;;5098104;28;19930;-62
2022/05/02 12:16:03;;;;;;;;;;;26.50;50.20;;;;;;5116849;28;19931;-62
2022/05/02 12:18:44;;;;;;;;;;;27.50;48.40;;;;;;5115933;28;19924;-62
2022/05/02 12:21:10;;;;;;;;;;;;;;;;;;5116177;28;20377;-62
2022/05/02 12:23:37;;;;;;;;;;;;;;;;;;5115853;28;19928;-62
2022/05/02 12:26:03;;;;;;;;;;;;;;;;;;5116460;28;20361;-62
2022/05/02 12:28:29;;;;;;;;;;;;;;;;;;5115570;28;19924;-62
2022/05/02 12:30:56;;;;;;;;;;;;;;;;;;5115632;28;19923;-62
2022/05/02 12:33:22;;;;;;;;;;;;;;;;;;5116435;28;19968;-62
2022/05/02 12:35:48;;;;;;;;;;;;;;;;;;5116367;28;19999;-62
2022/05/02 12:38:14;;;;;;;;;;;;;;;;;;5115210;28;20008;-62
2022/05/02 12:40:40;;;;;;;;;;;;;;;;;;5098279;28;19973;-62
2022/05/02 12:43:06;;;;;;;;;;;;;;;;;;5115466;28;20015;-62
2022/05/02 12:45:32;;;;;;;;;;;;;;;;;;5115253;28;20048;-62
2022/05/02 12:47:58;;;;;;;;;;;;;;;;;;5078720;28;20020;-62
2022/05/02 12:50:25;;;;;;;;;;;;;;;;;;5115184;28;19968;-62
2022/05/02 12:52:51;;;;;;;;;;;;;;;;;;5096984;28;19963;-62
2022/05/02 12:55:19;;;;;;;;;;;;;;;;;;5097559;28;19927;-62
2022/05/02 13:00:30;;;;;;;;;;;;;;;;;;5115203;28;20011;-62
2022/05/02 13:02:58;;;;;;;;;;;25.00;85.70;;;;;;5114892;28;20323;-62
2022/05/02 13:05:28;;;;;;;;;;;24.50;48.10;;;;;;5096451;28;19931;-62
2022/05/02 13:07:55;;;;;;;;;;;24.10;49.90;;;;;;5115528;28;19923;-62
2022/05/02 13:10:24;;;;;;;;;;;24.30;49.20;;;;;;5115588;28;19934;-62
2022/05/02 13:12:53;;;;;;;;;;;23.90;49.60;;;;;;5114285;28;19973;-62
2022/05/02 13:15:19;;;;;;;;;;;23.70;50.70;;;;;;5115690;28;19924;-62
2022/05/02 13:17:45;;;;;;;;;;;23.60;51.60;;;;;;5115642;28;19923;-62
2022/05/02 13:20:12;;;;;;;;;;;23.70;51.70;;;;;;5092999;28;19967;-62
2022/05/02 13:22:57;;;;;;;;;;;23.50;51.50;;;;;;5109740;28;20014;-62
2022/05/02 13:25:42;;;;;;;;;;;23.20;52.30;;;;;;5114062;28;19931;-62
2022/05/02 13:28:08;;;;;;;;;;;23.10;54.20;;;;;;5114675;28;19977;-62
2022/05/02 13:30:34;;;;;;;;;;;22.80;55.00;;;;;;5114656;28;20358;-62
2022/05/02 13:33:06;;;;;;;;;;;22.60;54.50;;;;;;5115066;28;19942;-62
2022/05/02 13:35:35;;;;;;;;;;;22.30;55.30;;;;;;5114612;28;19959;-62
2022/05/02 13:38:07;;;;;;;;;;;22.20;55.80;;;;;;5097163;28;19928;-62
2022/05/02 13:40:42;;;;;;;;;;;21.90;55.70;;;;;;5114945;28;19967;-62
2022/05/02 13:43:08;;;;;;;;;;;21.70;56.20;;;;;;5114821;28;19924;-62
2022/05/02 13:45:46;;;;;;;;;;;21.60;57.00;;;;;;5114665;28;19928;-62
2022/05/02 13:48:14;;;;;;;;;;;21.40;57.40;;;;;;5095120;28;19980;-62
2022/05/02 13:50:44;;;;;;;;;;;21.20;56.50;;;;;;5096326;28;19972;-62
2022/05/02 13:53:18;;;;;;;;;;;21.20;56.40;;;;;;5114704;28;20432;-62
2022/05/02 13:55:44;;;;;;;;;;;21.20;55.50;;;;;;5095551;28;20007;-63
2022/05/02 13:58:21;;;;;;;;;;;21.20;56.10;;;;;;5095514;28;19924;-62
2022/05/02 14:03:37;;;;;;;;;;;21.70;55.70;;;;;;5113144;28;19924;-62
2022/05/02 14:06:08;;;;;;;;;;;21.90;55.90;;;;;;5114476;28;19923;-62
2022/05/02 14:08:34;;;;;;;;;;;21.80;56.00;;;;;;5096259;28;19931;-62
2022/05/02 14:11:00;;;;;;;;;;;21.90;53.80;;;;;;5113389;28;19928;-62
2022/05/02 14:13:26;;;;;;;;;;;21.80;55.30;;;;;;5114329;28;20357;-62
2022/05/02 14:15:54;;;;;;;;;;;22.00;53.80;;;;;;5094320;28;19935;-62
2022/05/02 14:18:22;;;;;;;;;;;22.10;54.00;;;;;;5113769;28;20286;-62
2022/05/02 14:20:58;;;;;;;;;;;22.60;53.90;;;;;;5094787;28;20014;-62
2022/05/02 14:23:25;;;;;;;;;;;22.80;52.90;;;;;;5110080;28;20310;-62
2022/05/02 14:25:52;;;;;;;;;;;23.20;52.50;;;;;;5114087;28;19928;-63
2022/05/02 14:28:18;;;;;;;;;;;23.40;50.60;;;;;;5113962;28;20390;-63
2022/05/02 14:30:46;;;;;;;;;;;23.60;51.30;;;;;;5108158;28;19931;-63
2022/05/02 14:33:27;;;;;;;;;;;23.80;50.70;;;;;;5098428;28;20368;-62
2022/05/02 14:35:55;;;;;;;;;;;24.00;50.10;;;;;;5113096;28;19928;-62
2022/05/02 14:38:20;;;;;;;;;;;24.10;48.80;;;;;;5074485;28;19928;-63
2022/05/02 14:40:47;;;;;;;;;;;24.30;49.20;;;;;;5103086;28;20003;-63
2022/05/02 14:43:13;;;;;;;;;;;24.60;48.50;;;;;;5091882;28;19969;-63
2022/05/02 14:45:41;;;;;;;;;;;24.90;48.40;;;;;;5094550;28;19979;-63
2022/05/02 14:48:09;;;;;;;;;;;24.90;47.20;;;;;;5112882;28;20374;-63
2022/05/02 14:50:38;;;;;;;;;;;24.90;45.20;;;;;;5112489;28;19963;-63
2022/05/02 14:53:07;;;;;;;;;;;24.80;45.80;;;;;;5112899;28;19924;-63
2022/05/02 14:55:36;;;;;;;;;;;25.30;45.70;;;;;;5094858;28;19928;-63
2022/05/02 14:58:02;;;;;;;;;;;25.00;47.00;;;;;;5112479;28;20340;-63
2022/05/02 15:00:28;;;;;;;;;;;25.40;46.40;;;;;;5112182;28;20338;-63
2022/05/02 15:02:56;;;;;;;;;;;25.60;45.90;;;;;;5094855;28;20385;-63
2022/05/02 15:05:23;;;;;;;;;;;25.30;46.00;;;;;;5112651;28;20261;-63
2022/05/02 15:07:55;;;;;;;;;;;25.20;46.30;;;;;;5093996;28;20277;-62
2022/05/02 15:10:34;;;;;;;;;;;25.30;45.40;;;;;;5112744;28;20378;-63